Cap Bonavista — A8CH8 — position and weather

sailwx.info

Track history (hours):
 
Tides and Currents Weather Stations Pressure Air Temp Water Temp Dewpoint Dewpoint Depression Visibility Wind Speed Wind Dir Waves Ship Positions

Cap Bonavista

Last reported at 2014-Nov-15 14:04 UTC. Time now 2014-Nov-26 10:50 UTC.
Position N 35°59' W 005°28'.
Warning: this ship's position is 10 days out of date.

Length 200 m; beam 29.8 m; draft 11.6 m.

Type: Ship (hazmat cat A). MMSI: 636090647.

Date/timePositionNaut miles runAvg speedWind from/ knotsBaromVisibWave heightAir tempDewpointWater temp
2014-Nov-15 14:04N 35°59' W 005°28'4 8.1
2014-Nov-15 13:33N 36°02' W 005°24'7 6.7
2014-Nov-15 12:33N 36°09' W 005°26'0 0.1
2014-Nov-15 11:33N 36°09' W 005°26'0 0.0
2014-Nov-15 10:33N 36°09' W 005°26'0 0.0
2014-Nov-15 09:33N 36°09' W 005°26'0 0.0
2014-Nov-15 08:33N 36°09' W 005°26'0 0.0
2014-Nov-15 07:33N 36°09' W 005°26'0 0.0
2014-Nov-15 06:33N 36°09' W 005°26'0 0.0
2014-Nov-15 05:33N 36°09' W 005°26'0 0.0
2014-Nov-15 04:33N 36°09' W 005°26'0 0.0
2014-Nov-15 03:33N 36°09' W 005°26'0 0.0
2014-Nov-15 02:33N 36°09' W 005°26'0 0.0
2014-Nov-15 01:33N 36°09' W 005°26'0 0.0
2014-Nov-15 00:33N 36°09' W 005°26'0 0.0
2014-Nov-14 23:32N 36°09' W 005°26'0 0.0
2014-Nov-14 22:26N 36°09' W 005°26'0 0.0
2014-Nov-14 21:33N 36°09' W 005°26'0 0.0
2014-Nov-14 20:33N 36°09' W 005°26'0 0.0
2014-Nov-14 18:33N 36°09' W 005°26'0 0.0
2014-Nov-14 17:33N 36°09' W 005°26'0 0.0
2014-Nov-14 16:33N 36°09' W 005°26'0 0.0
2014-Nov-14 15:33N 36°09' W 005°26'0 0.0
2014-Nov-14 14:33N 36°09' W 005°26'0 0.0
2014-Nov-14 12:33N 36°09' W 005°26'0 0.0
2014-Nov-14 11:18N 36°09' W 005°26'0 0.0
2014-Nov-14 10:06N 36°09' W 005°26'0 0.0
2014-Nov-14 09:33N 36°09' W 005°26'0 0.0
2014-Nov-14 08:33N 36°09' W 005°26'0 0.0
2014-Nov-14 07:18N 36°09' W 005°26'0 0.0
2014-Nov-14 06:33N 36°09' W 005°26'0 0.0
2014-Nov-14 05:33N 36°09' W 005°26'0 0.0
2014-Nov-14 04:33N 36°09' W 005°26'0 0.0
2014-Nov-14 03:33N 36°09' W 005°26'0 0.0
2014-Nov-14 02:34N 36°09' W 005°26'3 2.3
2014-Nov-14 01:23N 36°08' W 005°23'4 4.8
2014-Nov-14 00:34N 36°05' W 005°20'1 1.3
2014-Nov-13 23:33N 36°04' W 005°18'2 1.6
2014-Nov-13 22:34N 36°03' W 005°17'8 7.6
2014-Nov-13 21:34N 36°06' W 005°08'2 0.3
2014-Nov-13 12:33N 36°04' W 005°09'2 2.0
2014-Nov-13 11:30N 36°05' W 005°06'  
2014-Nov-10 01:33N 36°42' E 013°27'1313.1
2014-Nov-10 00:33N 36°38' E 013°42'1312.8
2014-Nov-09 23:33N 36°33' E 013°57'1312.7
2014-Nov-09 22:34N 36°29' E 014°12'1212.3
2014-Nov-09 21:33N 36°25' E 014°27'44811.8
2014-Nov-08 07:33N 36°32' E 023°44'1513.0
2014-Nov-08 06:26N 36°43' E 023°56'1112.8
2014-Nov-08 05:33N 36°52' E 024°04'1313.0
2014-Nov-08 04:33N 37°05' E 024°08'1312.5
2014-Nov-08 03:33N 37°17' E 024°11'1211.8
2014-Nov-08 02:33N 37°28' E 024°18'1212.2
2014-Nov-08 01:33N 37°37' E 024°28'1212.2
2014-Nov-08 00:33N 37°49' E 024°33'2512.6
2014-Nov-07 22:32N 38°11' E 024°47'1212.1
2014-Nov-07 21:33N 38°22' E 024°54'1212.3
2014-Nov-07 20:33N 38°33' E 025°01'9610.5
2014-Nov-07 11:25N 39°59' E 025°57'125 9.7
2014-Nov-06 22:33N 40°51' E 028°26'1212.3
2014-Nov-06 21:33N 40°53' E 028°42'1211.9
2014-Nov-06 20:33N 40°58' E 028°56'1 0.0
2014-Nov-05 22:33N 40°59' E 028°56'0 0.0
2014-Nov-05 21:33N 40°59' E 028°56'0 0.0
2014-Nov-05 20:33N 40°59' E 028°56'0 0.0
2014-Nov-05 19:15N 40°59' E 028°56'0 0.0
2014-Nov-05 18:27N 40°59' E 028°56'0 0.0
2014-Nov-05 16:27N 40°59' E 028°56'0 0.0
2014-Nov-05 15:27N 40°59' E 028°56'0 0.0
2014-Nov-05 14:33N 40°59' E 028°56'  
Track history (hours):
 
Tides and Currents Weather Stations Pressure Air Temp Water Temp Dewpoint Dewpoint Depression Visibility Wind Speed Wind Dir Waves Ship Positions

Cap Bonavista

Last reported at 2014-Nov-15 14:04 UTC. Time now 2014-Nov-26 10:50 UTC.
Position N 35°59' W 005°28'.
Warning: this ship's position is 10 days out of date.

Length 200 m; beam 29.8 m; draft 11.6 m.

Type: Ship (hazmat cat A). MMSI: 636090647.

Date/timePositionNaut miles runAvg speedWind from/ knotsBaromVisibWave heightAir tempDewpointWater temp
2014-Nov-15 14:04N 35°59' W 005°28'4 8.1
2014-Nov-15 13:33N 36°02' W 005°24'7 6.7
2014-Nov-15 12:33N 36°09' W 005°26'0 0.1
2014-Nov-15 11:33N 36°09' W 005°26'0 0.0
2014-Nov-15 10:33N 36°09' W 005°26'0 0.0
2014-Nov-15 09:33N 36°09' W 005°26'0 0.0
2014-Nov-15 08:33N 36°09' W 005°26'0 0.0
2014-Nov-15 07:33N 36°09' W 005°26'0 0.0
2014-Nov-15 06:33N 36°09' W 005°26'0 0.0
2014-Nov-15 05:33N 36°09' W 005°26'0 0.0
2014-Nov-15 04:33N 36°09' W 005°26'0 0.0
2014-Nov-15 03:33N 36°09' W 005°26'0 0.0
2014-Nov-15 02:33N 36°09' W 005°26'0 0.0
2014-Nov-15 01:33N 36°09' W 005°26'0 0.0
2014-Nov-15 00:33N 36°09' W 005°26'0 0.0
2014-Nov-14 23:32N 36°09' W 005°26'0 0.0
2014-Nov-14 22:26N 36°09' W 005°26'0 0.0
2014-Nov-14 21:33N 36°09' W 005°26'0 0.0
2014-Nov-14 20:33N 36°09' W 005°26'0 0.0
2014-Nov-14 18:33N 36°09' W 005°26'0 0.0
2014-Nov-14 17:33N 36°09' W 005°26'0 0.0
2014-Nov-14 16:33N 36°09' W 005°26'0 0.0
2014-Nov-14 15:33N 36°09' W 005°26'0 0.0
2014-Nov-14 14:33N 36°09' W 005°26'0 0.0
2014-Nov-14 12:33N 36°09' W 005°26'0 0.0
2014-Nov-14 11:18N 36°09' W 005°26'0 0.0
2014-Nov-14 10:06N 36°09' W 005°26'0 0.0
2014-Nov-14 09:33N 36°09' W 005°26'0 0.0
2014-Nov-14 08:33N 36°09' W 005°26'0 0.0
2014-Nov-14 07:18N 36°09' W 005°26'0 0.0
2014-Nov-14 06:33N 36°09' W 005°26'0 0.0
2014-Nov-14 05:33N 36°09' W 005°26'0 0.0
2014-Nov-14 04:33N 36°09' W 005°26'0 0.0
2014-Nov-14 03:33N 36°09' W 005°26'0 0.0
2014-Nov-14 02:34N 36°09' W 005°26'3 2.3
2014-Nov-14 01:23N 36°08' W 005°23'4 4.8
2014-Nov-14 00:34N 36°05' W 005°20'1 1.3
2014-Nov-13 23:33N 36°04' W 005°18'2 1.6
2014-Nov-13 22:34N 36°03' W 005°17'8 7.6
2014-Nov-13 21:34N 36°06' W 005°08'2 0.3
2014-Nov-13 12:33N 36°04' W 005°09'2 2.0
2014-Nov-13 11:30N 36°05' W 005°06'  
2014-Nov-10 01:33N 36°42' E 013°27'1313.1
2014-Nov-10 00:33N 36°38' E 013°42'1312.8
2014-Nov-09 23:33N 36°33' E 013°57'1312.7
2014-Nov-09 22:34N 36°29' E 014°12'1212.3
2014-Nov-09 21:33N 36°25' E 014°27'44811.8
2014-Nov-08 07:33N 36°32' E 023°44'1513.0
2014-Nov-08 06:26N 36°43' E 023°56'1112.8
2014-Nov-08 05:33N 36°52' E 024°04'1313.0
2014-Nov-08 04:33N 37°05' E 024°08'1312.5
2014-Nov-08 03:33N 37°17' E 024°11'1211.8
2014-Nov-08 02:33N 37°28' E 024°18'1212.2
2014-Nov-08 01:33N 37°37' E 024°28'1212.2
2014-Nov-08 00:33N 37°49' E 024°33'2512.6
2014-Nov-07 22:32N 38°11' E 024°47'1212.1
2014-Nov-07 21:33N 38°22' E 024°54'1212.3
2014-Nov-07 20:33N 38°33' E 025°01'9610.5
2014-Nov-07 11:25N 39°59' E 025°57'125 9.7
2014-Nov-06 22:33N 40°51' E 028°26'1212.3
2014-Nov-06 21:33N 40°53' E 028°42'1211.9
2014-Nov-06 20:33N 40°58' E 028°56'1 0.0
2014-Nov-05 22:33N 40°59' E 028°56'0 0.0
2014-Nov-05 21:33N 40°59' E 028°56'0 0.0
2014-Nov-05 20:33N 40°59' E 028°56'0 0.0
2014-Nov-05 19:15N 40°59' E 028°56'0 0.0
2014-Nov-05 18:27N 40°59' E 028°56'0 0.0
2014-Nov-05 16:27N 40°59' E 028°56'0 0.0
2014-Nov-05 15:27N 40°59' E 028°56'0 0.0
2014-Nov-05 14:33N 40°59' E 028°56'  

Dump ship's entire track history